sensor_id;sensor_type;location;lat;lon;timestamp;P1;P2;P0
81989;PMS5003;71485;51.638;-0.182;2024-01-15T00:00:17;5;5;
81989;PMS5003;71485;51.638;-0.182;2024-01-15T00:02:39;5;4;
81989;PMS5003;71485;51.638;-0.182;2024-01-15T00:05:04;3;3;
81989;PMS5003;71485;51.638;-0.182;2024-01-15T00:07:29;3;3;
81989;PMS5003;71485;51.638;-0.182;2024-01-15T00:09:55;4;4;
81989;PMS5003;71485;51.638;-0.182;2024-01-15T00:12:20;4;4;
81989;PMS5003;71485;51.638;-0.182;2024-01-15T00:14:46;3;3;
81989;PMS5003;71485;51.638;-0.182;2024-01-15T00:17:12;3;3;
81989;PMS5003;71485;51.638;-0.182;2024-01-15T00:19:38;3;3;
81989;PMS5003;71485;51.638;-0.182;2024-01-15T00:22:03;3;3;
81989;PMS5003;71485;51.638;-0.182;2024-01-15T00:24:31;4;3;
81989;PMS5003;71485;51.638;-0.182;2024-01-15T00:26:55;3;3;
81989;PMS5003;71485;51.638;-0.182;2024-01-15T00:29:21;3;3;
81989;PMS5003;71485;51.638;-0.182;2024-01-15T00:31:46;2;2;
81989;PMS5003;71485;51.638;-0.182;2024-01-15T00:34:11;4;3;
81989;PMS5003;71485;51.638;-0.182;2024-01-15T00:36:37;3;3;
81989;PMS5003;71485;51.638;-0.182;2024-01-15T00:39:05;2;2;
81989;PMS5003;71485;51.638;-0.182;2024-01-15T00:41:28;3;3;
81989;PMS5003;71485;51.638;-0.182;2024-01-15T00:43:54;3;3;
81989;PMS5003;71485;51.638;-0.182;2024-01-15T00:46:20;4;4;
81989;PMS5003;71485;51.638;-0.182;2024-01-15T00:48:47;3;3;
81989;PMS5003;71485;51.638;-0.182;2024-01-15T00:51:11;4;3;
81989;PMS5003;71485;51.638;-0.182;2024-01-15T00:53:37;3;3;
81989;PMS5003;71485;51.638;-0.182;2024-01-15T00:56:03;2;2;
81989;PMS5003;71485;51.638;-0.182;2024-01-15T00:58:28;1;1;
81989;PMS5003;71485;51.638;-0.182;2024-01-15T01:00:54;2;2;
81989;PMS5003;71485;51.638;-0.182;2024-01-15T01:03:19;3;3;
81989;PMS5003;71485;51.638;-0.182;2024-01-15T01:05:44;4;3;
81989;PMS5003;71485;51.638;-0.182;2024-01-15T01:08:10;3;3;
81989;PMS5003;71485;51.638;-0.182;2024-01-15T01:10:37;2;1;
81989;PMS5003;71485;51.638;-0.182;2024-01-15T01:13:01;3;3;
81989;PMS5003;71485;51.638;-0.182;2024-01-15T01:15:27;1;1;
81989;PMS5003;71485;51.638;-0.182;2024-01-15T01:17:53;1;1;
81989;PMS5003;71485;51.638;-0.182;2024-01-15T01:20:19;4;4;
81989;PMS5003;71485;51.638;-0.182;2024-01-15T01:22:44;2;2;
81989;PMS5003;71485;51.638;-0.182;2024-01-15T01:25:10;2;2;
81989;PMS5003;71485;51.638;-0.182;2024-01-15T01:27:36;3;3;
81989;PMS5003;71485;51.638;-0.182;2024-01-15T01:30:01;3;3;
81989;PMS5003;71485;51.638;-0.182;2024-01-15T01:32:27;2;2;
81989;PMS5003;71485;51.638;-0.182;2024-01-15T01:34:52;3;3;
81989;PMS5003;71485;51.638;-0.182;2024-01-15T01:37:18;5;4;
81989;PMS5003;71485;51.638;-0.182;2024-01-15T01:39:44;3;3;
81989;PMS5003;71485;51.638;-0.182;2024-01-15T01:42:10;2;2;
81989;PMS5003;71485;51.638;-0.182;2024-01-15T01:44:35;4;4;
81989;PMS5003;71485;51.638;-0.182;2024-01-15T01:47:02;2;2;
81989;PMS5003;71485;51.638;-0.182;2024-01-15T01:49:27;4;3;
81989;PMS5003;71485;51.638;-0.182;2024-01-15T01:51:53;3;3;
81989;PMS5003;71485;51.638;-0.182;2024-01-15T01:54:22;3;2;
81989;PMS5003;71485;51.638;-0.182;2024-01-15T01:56:43;1;1;
81989;PMS5003;71485;51.638;-0.182;2024-01-15T01:59:13;3;3;
81989;PMS5003;71485;51.638;-0.182;2024-01-15T02:01:34;2;2;
81989;PMS5003;71485;51.638;-0.182;2024-01-15T02:04:00;2;2;
81989;PMS5003;71485;51.638;-0.182;2024-01-15T02:06:26;4;3;
81989;PMS5003;71485;51.638;-0.182;2024-01-15T02:08:52;3;3;
81989;PMS5003;71485;51.638;-0.182;2024-01-15T02:11:19;3;3;
81989;PMS5003;71485;51.638;-0.182;2024-01-15T02:13:45;3;3;
81989;PMS5003;71485;51.638;-0.182;2024-01-15T02:16:08;2;2;
81989;PMS5003;71485;51.638;-0.182;2024-01-15T02:18:40;2;2;
81989;PMS5003;71485;51.638;-0.182;2024-01-15T02:21:00;2;2;
81989;PMS5003;71485;51.638;-0.182;2024-01-15T02:23:25;3;3;
81989;PMS5003;71485;51.638;-0.182;2024-01-15T02:25:52;2;2;
81989;PMS5003;71485;51.638;-0.182;2024-01-15T02:28:17;2;2;
81989;PMS5003;71485;51.638;-0.182;2024-01-15T02:30:42;3;3;
81989;PMS5003;71485;51.638;-0.182;2024-01-15T02:33:08;2;2;
81989;PMS5003;71485;51.638;-0.182;2024-01-15T02:35:34;2;2;
81989;PMS5003;71485;51.638;-0.182;2024-01-15T02:38:01;3;3;
81989;PMS5003;71485;51.638;-0.182;2024-01-15T02:40:25;2;2;
81989;PMS5003;71485;51.638;-0.182;2024-01-15T02:42:51;3;3;
81989;PMS5003;71485;51.638;-0.182;2024-01-15T02:45:17;3;3;
81989;PMS5003;71485;51.638;-0.182;2024-01-15T02:47:42;2;2;
81989;PMS5003;71485;51.638;-0.182;2024-01-15T02:50:07;3;3;
81989;PMS5003;71485;51.638;-0.182;2024-01-15T02:52:34;2;2;
81989;PMS5003;71485;51.638;-0.182;2024-01-15T02:54:59;3;3;
81989;PMS5003;71485;51.638;-0.182;2024-01-15T02:57:24;2;2;
81989;PMS5003;71485;51.638;-0.182;2024-01-15T02:59:51;2;2;
81989;PMS5003;71485;51.638;-0.182;2024-01-15T03:02:16;2;2;
81989;PMS5003;71485;51.638;-0.182;2024-01-15T03:04:42;3;3;
81989;PMS5003;71485;51.638;-0.182;2024-01-15T03:07:08;3;3;
81989;PMS5003;71485;51.638;-0.182;2024-01-15T03:09:32;2;2;
81989;PMS5003;71485;51.638;-0.182;2024-01-15T03:12:00;1;1;
81989;PMS5003;71485;51.638;-0.182;2024-01-15T03:14:24;3;3;
81989;PMS5003;71485;51.638;-0.182;2024-01-15T03:16:50;1;1;
81989;PMS5003;71485;51.638;-0.182;2024-01-15T03:19:16;2;2;
81989;PMS5003;71485;51.638;-0.182;2024-01-15T03:21:41;4;2;
81989;PMS5003;71485;51.638;-0.182;2024-01-15T03:24:06;2;2;
81989;PMS5003;71485;51.638;-0.182;2024-01-15T03:26:33;3;2;
81989;PMS5003;71485;51.638;-0.182;2024-01-15T03:28:58;1;1;
81989;PMS5003;71485;51.638;-0.182;2024-01-15T03:31:23;3;3;
81989;PMS5003;71485;51.638;-0.182;2024-01-15T03:33:49;2;2;
81989;PMS5003;71485;51.638;-0.182;2024-01-15T03:36:15;2;2;
81989;PMS5003;71485;51.638;-0.182;2024-01-15T03:38:42;3;3;
81989;PMS5003;71485;51.638;-0.182;2024-01-15T03:41:06;4;4;
81989;PMS5003;71485;51.638;-0.182;2024-01-15T03:43:32;2;2;
81989;PMS5003;71485;51.638;-0.182;2024-01-15T03:45:59;1;1;
81989;PMS5003;71485;51.638;-0.182;2024-01-15T03:48:24;3;3;
81989;PMS5003;71485;51.638;-0.182;2024-01-15T03:50:49;3;3;
81989;PMS5003;71485;51.638;-0.182;2024-01-15T03:53:18;3;3;
81989;PMS5003;71485;51.638;-0.182;2024-01-15T03:55:41;2;2;
81989;PMS5003;71485;51.638;-0.182;2024-01-15T03:58:06;3;3;
81989;PMS5003;71485;51.638;-0.182;2024-01-15T04:00:33;1;1;
81989;PMS5003;71485;51.638;-0.182;2024-01-15T04:03:00;3;3;
81989;PMS5003;71485;51.638;-0.182;2024-01-15T04:05:23;2;2;
81989;PMS5003;71485;51.638;-0.182;2024-01-15T04:07:48;2;2;
81989;PMS5003;71485;51.638;-0.182;2024-01-15T04:10:14;2;2;
81989;PMS5003;71485;51.638;-0.182;2024-01-15T04:12:40;2;2;
81989;PMS5003;71485;51.638;-0.182;2024-01-15T04:15:06;2;2;
81989;PMS5003;71485;51.638;-0.182;2024-01-15T04:17:31;4;2;
81989;PMS5003;71485;51.638;-0.182;2024-01-15T04:19:57;2;2;
81989;PMS5003;71485;51.638;-0.182;2024-01-15T04:22:24;3;3;
81989;PMS5003;71485;51.638;-0.182;2024-01-15T04:24:50;3;3;
81989;PMS5003;71485;51.638;-0.182;2024-01-15T04:27:15;2;2;
81989;PMS5003;71485;51.638;-0.182;2024-01-15T04:29:39;2;2;
81989;PMS5003;71485;51.638;-0.182;2024-01-15T04:32:05;3;3;
81989;PMS5003;71485;51.638;-0.182;2024-01-15T04:34:31;1;1;
81989;PMS5003;71485;51.638;-0.182;2024-01-15T04:36:56;2;2;
81989;PMS5003;71485;51.638;-0.182;2024-01-15T04:39:25;1;1;
81989;PMS5003;71485;51.638;-0.182;2024-01-15T04:41:48;3;3;
81989;PMS5003;71485;51.638;-0.182;2024-01-15T04:44:13;1;1;
81989;PMS5003;71485;51.638;-0.182;2024-01-15T04:46:40;2;2;
81989;PMS5003;71485;51.638;-0.182;2024-01-15T04:49:06;2;2;
81989;PMS5003;71485;51.638;-0.182;2024-01-15T04:51:31;2;2;
81989;PMS5003;71485;51.638;-0.182;2024-01-15T04:53:57;2;2;
81989;PMS5003;71485;51.638;-0.182;2024-01-15T04:56:22;2;2;
81989;PMS5003;71485;51.638;-0.182;2024-01-15T04:58:50;2;2;
81989;PMS5003;71485;51.638;-0.182;2024-01-15T05:01:15;2;2;
81989;PMS5003;71485;51.638;-0.182;2024-01-15T05:03:40;2;2;
81989;PMS5003;71485;51.638;-0.182;2024-01-15T05:06:05;1;1;
81989;PMS5003;71485;51.638;-0.182;2024-01-15T05:08:30;2;2;
81989;PMS5003;71485;51.638;-0.182;2024-01-15T05:10:56;3;3;
81989;PMS5003;71485;51.638;-0.182;2024-01-15T05:13:22;2;2;
81989;PMS5003;71485;51.638;-0.182;2024-01-15T05:15:48;2;1;
81989;PMS5003;71485;51.638;-0.182;2024-01-15T05:18:13;2;2;
81989;PMS5003;71485;51.638;-0.182;2024-01-15T05:20:39;4;4;
81989;PMS5003;71485;51.638;-0.182;2024-01-15T05:23:04;2;2;
81989;PMS5003;71485;51.638;-0.182;2024-01-15T05:25:31;3;3;
81989;PMS5003;71485;51.638;-0.182;2024-01-15T05:27:56;2;2;
81989;PMS5003;71485;51.638;-0.182;2024-01-15T05:30:21;2;2;
81989;PMS5003;71485;51.638;-0.182;2024-01-15T05:32:47;2;2;
81989;PMS5003;71485;51.638;-0.182;2024-01-15T05:35:13;2;2;
81989;PMS5003;71485;51.638;-0.182;2024-01-15T05:37:40;2;2;
81989;PMS5003;71485;51.638;-0.182;2024-01-15T05:40:06;1;1;
81989;PMS5003;71485;51.638;-0.182;2024-01-15T05:42:32;1;1;
81989;PMS5003;71485;51.638;-0.182;2024-01-15T05:44:55;1;1;
81989;PMS5003;71485;51.638;-0.182;2024-01-15T05:47:26;2;2;
81989;PMS5003;71485;51.638;-0.182;2024-01-15T05:49:47;2;2;
81989;PMS5003;71485;51.638;-0.182;2024-01-15T05:52:13;1;1;
81989;PMS5003;71485;51.638;-0.182;2024-01-15T05:54:38;3;2;
81989;PMS5003;71485;51.638;-0.182;2024-01-15T05:57:04;1;1;
81989;PMS5003;71485;51.638;-0.182;2024-01-15T05:59:32;1;1;
81989;PMS5003;71485;51.638;-0.182;2024-01-15T06:01:56;0;0;
81989;PMS5003;71485;51.638;-0.182;2024-01-15T06:04:21;1;1;
81989;PMS5003;71485;51.638;-0.182;2024-01-15T06:06:46;3;2;
81989;PMS5003;71485;51.638;-0.182;2024-01-15T06:09:12;2;1;
81989;PMS5003;71485;51.638;-0.182;2024-01-15T06:11:37;1;1;
81989;PMS5003;71485;51.638;-0.182;2024-01-15T06:14:03;2;2;
81989;PMS5003;71485;51.638;-0.182;2024-01-15T06:16:29;1;1;
81989;PMS5003;71485;51.638;-0.182;2024-01-15T06:18:54;1;1;
81989;PMS5003;71485;51.638;-0.182;2024-01-15T06:21:20;1;1;
81989;PMS5003;71485;51.638;-0.182;2024-01-15T06:23:46;2;2;
81989;PMS5003;71485;51.638;-0.182;2024-01-15T06:26:14;2;2;
81989;PMS5003;71485;51.638;-0.182;2024-01-15T06:28:38;1;1;
81989;PMS5003;71485;51.638;-0.182;2024-01-15T06:31:03;0;0;
81989;PMS5003;71485;51.638;-0.182;2024-01-15T06:33:30;1;1;
81989;PMS5003;71485;51.638;-0.182;2024-01-15T06:35:54;3;3;
81989;PMS5003;71485;51.638;-0.182;2024-01-15T06:38:21;2;2;
81989;PMS5003;71485;51.638;-0.182;2024-01-15T06:40:47;2;2;
81989;PMS5003;71485;51.638;-0.182;2024-01-15T06:43:12;2;2;
81989;PMS5003;71485;51.638;-0.182;2024-01-15T06:45:38;3;2;
81989;PMS5003;71485;51.638;-0.182;2024-01-15T06:48:04;1;1;
81989;PMS5003;71485;51.638;-0.182;2024-01-15T06:50:28;2;1;
81989;PMS5003;71485;51.638;-0.182;2024-01-15T06:52:56;0;0;
81989;PMS5003;71485;51.638;-0.182;2024-01-15T06:55:19;1;1;
81989;PMS5003;71485;51.638;-0.182;2024-01-15T06:57:45;1;1;
81989;PMS5003;71485;51.638;-0.182;2024-01-15T07:00:15;2;2;
81989;PMS5003;71485;51.638;-0.182;2024-01-15T07:02:38;1;1;
81989;PMS5003;71485;51.638;-0.182;2024-01-15T07:05:02;1;1;
81989;PMS5003;71485;51.638;-0.182;2024-01-15T07:07:28;1;1;
81989;PMS5003;71485;51.638;-0.182;2024-01-15T07:09:54;0;0;
81989;PMS5003;71485;51.638;-0.182;2024-01-15T07:12:19;1;1;
81989;PMS5003;71485;51.638;-0.182;2024-01-15T07:14:45;2;2;
81989;PMS5003;71485;51.638;-0.182;2024-01-15T07:17:11;2;1;
81989;PMS5003;71485;51.638;-0.182;2024-01-15T07:19:36;1;1;
81989;PMS5003;71485;51.638;-0.182;2024-01-15T07:22:02;2;2;
81989;PMS5003;71485;51.638;-0.182;2024-01-15T07:24:28;2;2;
81989;PMS5003;71485;51.638;-0.182;2024-01-15T07:26:56;1;1;
81989;PMS5003;71485;51.638;-0.182;2024-01-15T07:29:20;0;0;
81989;PMS5003;71485;51.638;-0.182;2024-01-15T07:31:47;1;1;
81989;PMS5003;71485;51.638;-0.182;2024-01-15T07:34:10;1;1;
81989;PMS5003;71485;51.638;-0.182;2024-01-15T07:36:37;1;1;
81989;PMS5003;71485;51.638;-0.182;2024-01-15T07:39:06;0;0;
81989;PMS5003;71485;51.638;-0.182;2024-01-15T07:41:27;1;1;
81989;PMS5003;71485;51.638;-0.182;2024-01-15T07:43:53;2;2;
81989;PMS5003;71485;51.638;-0.182;2024-01-15T07:46:20;0;0;
81989;PMS5003;71485;51.638;-0.182;2024-01-15T07:48:46;1;1;
81989;PMS5003;71485;51.638;-0.182;2024-01-15T07:51:11;2;2;
81989;PMS5003;71485;51.638;-0.182;2024-01-15T07:53:38;2;2;
81989;PMS5003;71485;51.638;-0.182;2024-01-15T07:56:01;1;1;
81989;PMS5003;71485;51.638;-0.182;2024-01-15T07:58:27;1;1;
81989;PMS5003;71485;51.638;-0.182;2024-01-15T08:00:57;0;0;
81989;PMS5003;71485;51.638;-0.182;2024-01-15T08:03:22;0;0;
81989;PMS5003;71485;51.638;-0.182;2024-01-15T08:05:45;3;1;
81989;PMS5003;71485;51.638;-0.182;2024-01-15T08:08:10;1;1;
81989;PMS5003;71485;51.638;-0.182;2024-01-15T08:10:35;2;2;
81989;PMS5003;71485;51.638;-0.182;2024-01-15T08:13:01;1;1;
81989;PMS5003;71485;51.638;-0.182;2024-01-15T08:15:27;1;1;
81989;PMS5003;71485;51.638;-0.182;2024-01-15T08:17:53;1;1;
81989;PMS5003;71485;51.638;-0.182;2024-01-15T08:20:18;0;0;
81989;PMS5003;71485;51.638;-0.182;2024-01-15T08:22:45;2;1;
81989;PMS5003;71485;51.638;-0.182;2024-01-15T08:25:11;1;1;
81989;PMS5003;71485;51.638;-0.182;2024-01-15T08:27:36;1;1;
81989;PMS5003;71485;51.638;-0.182;2024-01-15T08:30:05;1;1;
81989;PMS5003;71485;51.638;-0.182;2024-01-15T08:32:27;0;0;
81989;PMS5003;71485;51.638;-0.182;2024-01-15T08:34:52;1;1;
81989;PMS5003;71485;51.638;-0.182;2024-01-15T08:37:18;0;0;
81989;PMS5003;71485;51.638;-0.182;2024-01-15T08:39:45;0;0;
81989;PMS5003;71485;51.638;-0.182;2024-01-15T08:42:09;1;1;
81989;PMS5003;71485;51.638;-0.182;2024-01-15T08:44:35;1;1;
81989;PMS5003;71485;51.638;-0.182;2024-01-15T08:47:03;2;2;
81989;PMS5003;71485;51.638;-0.182;2024-01-15T08:49:27;1;1;
81989;PMS5003;71485;51.638;-0.182;2024-01-15T08:51:52;0;0;
81989;PMS5003;71485;51.638;-0.182;2024-01-15T08:54:21;2;2;
81989;PMS5003;71485;51.638;-0.182;2024-01-15T08:56:43;0;0;
81989;PMS5003;71485;51.638;-0.182;2024-01-15T08:59:10;1;1;
81989;PMS5003;71485;51.638;-0.182;2024-01-15T09:01:38;0;0;
81989;PMS5003;71485;51.638;-0.182;2024-01-15T09:04:02;1;1;
81989;PMS5003;71485;51.638;-0.182;2024-01-15T09:06:26;1;1;
81989;PMS5003;71485;51.638;-0.182;2024-01-15T09:08:53;0;0;
81989;PMS5003;71485;51.638;-0.182;2024-01-15T09:11:18;1;1;
81989;PMS5003;71485;51.638;-0.182;2024-01-15T09:13:43;2;1;
81989;PMS5003;71485;51.638;-0.182;2024-01-15T09:16:09;3;2;
81989;PMS5003;71485;51.638;-0.182;2024-01-15T09:18:34;2;2;
81989;PMS5003;71485;51.638;-0.182;2024-01-15T09:21:00;14;12;
81989;PMS5003;71485;51.638;-0.182;2024-01-15T09:23:25;15;11;
81989;PMS5003;71485;51.638;-0.182;2024-01-15T09:25:51;12;11;
81989;PMS5003;71485;51.638;-0.182;2024-01-15T09:28:17;9;9;
81989;PMS5003;71485;51.638;-0.182;2024-01-15T09:30:41;12;9;
81989;PMS5003;71485;51.638;-0.182;2024-01-15T09:33:07;6;6;
81989;PMS5003;71485;51.638;-0.182;2024-01-15T09:35:32;10;9;
81989;PMS5003;71485;51.638;-0.182;2024-01-15T09:38:02;5;3;
81989;PMS5003;71485;51.638;-0.182;2024-01-15T09:40:23;6;6;
81989;PMS5003;71485;51.638;-0.182;2024-01-15T09:42:50;7;6;
81989;PMS5003;71485;51.638;-0.182;2024-01-15T09:45:19;6;5;
81989;PMS5003;71485;51.638;-0.182;2024-01-15T09:47:40;7;7;
81989;PMS5003;71485;51.638;-0.182;2024-01-15T09:50:06;7;5;
81989;PMS5003;71485;51.638;-0.182;2024-01-15T09:52:35;8;6;
81989;PMS5003;71485;51.638;-0.182;2024-01-15T09:54:58;9;5;
81989;PMS5003;71485;51.638;-0.182;2024-01-15T09:57:22;5;3;
81989;PMS5003;71485;51.638;-0.182;2024-01-15T09:59:49;3;3;
81989;PMS5003;71485;51.638;-0.182;2024-01-15T10:02:16;5;4;
81989;PMS5003;71485;51.638;-0.182;2024-01-15T10:04:39;6;3;
81989;PMS5003;71485;51.638;-0.182;2024-01-15T10:07:05;3;3;
81989;PMS5003;71485;51.638;-0.182;2024-01-15T10:09:31;5;3;
81989;PMS5003;71485;51.638;-0.182;2024-01-15T10:11:56;4;3;
81989;PMS5003;71485;51.638;-0.182;2024-01-15T10:14:23;3;3;
81989;PMS5003;71485;51.638;-0.182;2024-01-15T10:16:50;4;3;
81989;PMS5003;71485;51.638;-0.182;2024-01-15T10:19:13;3;3;
81989;PMS5003;71485;51.638;-0.182;2024-01-15T10:21:40;2;1;
81989;PMS5003;71485;51.638;-0.182;2024-01-15T10:24:06;3;3;
81989;PMS5003;71485;51.638;-0.182;2024-01-15T10:26:31;3;3;
81989;PMS5003;71485;51.638;-0.182;2024-01-15T10:28:56;3;3;
81989;PMS5003;71485;51.638;-0.182;2024-01-15T10:31:22;2;2;
81989;PMS5003;71485;51.638;-0.182;2024-01-15T10:33:47;6;3;
81989;PMS5003;71485;51.638;-0.182;2024-01-15T10:36:13;4;3;
81989;PMS5003;71485;51.638;-0.182;2024-01-15T10:38:41;3;3;
81989;PMS5003;71485;51.638;-0.182;2024-01-15T10:41:08;1;1;
81989;PMS5003;71485;51.638;-0.182;2024-01-15T10:43:30;3;3;
81989;PMS5003;71485;51.638;-0.182;2024-01-15T10:45:56;3;3;
81989;PMS5003;71485;51.638;-0.182;2024-01-15T10:48:22;2;2;
81989;PMS5003;71485;51.638;-0.182;2024-01-15T10:50:47;1;1;
81989;PMS5003;71485;51.638;-0.182;2024-01-15T10:53:14;2;2;
81989;PMS5003;71485;51.638;-0.182;2024-01-15T10:55:38;3;3;
81989;PMS5003;71485;51.638;-0.182;2024-01-15T10:58:04;2;2;
81989;PMS5003;71485;51.638;-0.182;2024-01-15T11:00:30;2;2;
81989;PMS5003;71485;51.638;-0.182;2024-01-15T11:02:56;3;2;
81989;PMS5003;71485;51.638;-0.182;2024-01-15T11:05:21;2;2;
81989;PMS5003;71485;51.638;-0.182;2024-01-15T11:07:47;2;1;
81989;PMS5003;71485;51.638;-0.182;2024-01-15T11:12:39;1;1;
81989;PMS5003;71485;51.638;-0.182;2024-01-15T11:15:04;3;2;
81989;PMS5003;71485;51.638;-0.182;2024-01-15T11:19:54;1;1;
81989;PMS5003;71485;51.638;-0.182;2024-01-15T11:24:47;0;0;
81989;PMS5003;71485;51.638;-0.182;2024-01-15T11:27:12;1;1;
81989;PMS5003;71485;51.638;-0.182;2024-01-15T11:29:37;1;1;
81989;PMS5003;71485;51.638;-0.182;2024-01-15T11:32:04;1;1;
81989;PMS5003;71485;51.638;-0.182;2024-01-15T11:37:02;2;2;
81989;PMS5003;71485;51.638;-0.182;2024-01-15T11:41:45;2;2;
81989;PMS5003;71485;51.638;-0.182;2024-01-15T11:44:11;4;3;
81989;PMS5003;71485;51.638;-0.182;2024-01-15T11:46:38;3;3;
81989;PMS5003;71485;51.638;-0.182;2024-01-15T11:49:03;5;5;
81989;PMS5003;71485;51.638;-0.182;2024-01-15T11:51:28;2;2;
81989;PMS5003;71485;51.638;-0.182;2024-01-15T11:53:54;3;3;
81989;PMS5003;71485;51.638;-0.182;2024-01-15T11:56:19;3;3;
81989;PMS5003;71485;51.638;-0.182;2024-01-15T11:58:46;3;3;
81989;PMS5003;71485;51.638;-0.182;2024-01-15T12:01:11;3;3;
81989;PMS5003;71485;51.638;-0.182;2024-01-15T12:03:38;4;4;
81989;PMS5003;71485;51.638;-0.182;2024-01-15T12:06:02;3;2;
81989;PMS5003;71485;51.638;-0.182;2024-01-15T12:08:28;1;1;
81989;PMS5003;71485;51.638;-0.182;2024-01-15T12:10:53;3;3;
81989;PMS5003;71485;51.638;-0.182;2024-01-15T12:13:19;4;3;
81989;PMS5003;71485;51.638;-0.182;2024-01-15T12:15:45;2;2;
81989;PMS5003;71485;51.638;-0.182;2024-01-15T12:18:12;3;3;
81989;PMS5003;71485;51.638;-0.182;2024-01-15T12:20:36;1;1;
81989;PMS5003;71485;51.638;-0.182;2024-01-15T12:23:03;2;2;
81989;PMS5003;71485;51.638;-0.182;2024-01-15T12:25:28;1;1;
81989;PMS5003;71485;51.638;-0.182;2024-01-15T12:27:53;2;2;
81989;PMS5003;71485;51.638;-0.182;2024-01-15T12:30:19;3;2;
81989;PMS5003;71485;51.638;-0.182;2024-01-15T12:32:44;2;2;
81989;PMS5003;71485;51.638;-0.182;2024-01-15T12:35:10;2;2;
81989;PMS5003;71485;51.638;-0.182;2024-01-15T12:37:35;2;2;
81989;PMS5003;71485;51.638;-0.182;2024-01-15T12:40:02;3;1;
81989;PMS5003;71485;51.638;-0.182;2024-01-15T12:42:27;3;3;
81989;PMS5003;71485;51.638;-0.182;2024-01-15T12:44:54;1;1;
81989;PMS5003;71485;51.638;-0.182;2024-01-15T12:47:23;4;2;
81989;PMS5003;71485;51.638;-0.182;2024-01-15T12:49:46;2;2;
81989;PMS5003;71485;51.638;-0.182;2024-01-15T12:52:11;3;2;
81989;PMS5003;71485;51.638;-0.182;2024-01-15T12:54:39;2;2;
81989;PMS5003;71485;51.638;-0.182;2024-01-15T12:57:02;2;2;
81989;PMS5003;71485;51.638;-0.182;2024-01-15T12:59:27;1;1;
81989;PMS5003;71485;51.638;-0.182;2024-01-15T13:01:53;1;1;
81989;PMS5003;71485;51.638;-0.182;2024-01-15T13:04:21;1;1;
81989;PMS5003;71485;51.638;-0.182;2024-01-15T13:06:43;2;2;
81989;PMS5003;71485;51.638;-0.182;2024-01-15T13:09:11;1;1;
81989;PMS5003;71485;51.638;-0.182;2024-01-15T13:11:35;1;1;
81989;PMS5003;71485;51.638;-0.182;2024-01-15T13:14:00;3;2;
81989;PMS5003;71485;51.638;-0.182;2024-01-15T13:16:27;0;0;
81989;PMS5003;71485;51.638;-0.182;2024-01-15T13:18:52;1;1;
81989;PMS5003;71485;51.638;-0.182;2024-01-15T13:21:17;2;2;
81989;PMS5003;71485;51.638;-0.182;2024-01-15T13:23:43;1;1;
81989;PMS5003;71485;51.638;-0.182;2024-01-15T13:26:09;0;0;
81989;PMS5003;71485;51.638;-0.182;2024-01-15T13:28:34;2;2;
81989;PMS5003;71485;51.638;-0.182;2024-01-15T13:31:00;1;1;
81989;PMS5003;71485;51.638;-0.182;2024-01-15T13:33:25;2;1;
81989;PMS5003;71485;51.638;-0.182;2024-01-15T13:35:51;1;0;
81989;PMS5003;71485;51.638;-0.182;2024-01-15T13:38:19;0;0;
81989;PMS5003;71485;51.638;-0.182;2024-01-15T13:40:43;0;0;
81989;PMS5003;71485;51.638;-0.182;2024-01-15T13:43:11;2;1;
81989;PMS5003;71485;51.638;-0.182;2024-01-15T13:45:38;1;1;
81989;PMS5003;71485;51.638;-0.182;2024-01-15T13:48:05;0;0;
81989;PMS5003;71485;51.638;-0.182;2024-01-15T13:50:25;0;0;
81989;PMS5003;71485;51.638;-0.182;2024-01-15T13:52:51;1;1;
81989;PMS5003;71485;51.638;-0.182;2024-01-15T13:55:16;1;1;
81989;PMS5003;71485;51.638;-0.182;2024-01-15T13:57:42;1;1;
81989;PMS5003;71485;51.638;-0.182;2024-01-15T14:00:13;0;0;
81989;PMS5003;71485;51.638;-0.182;2024-01-15T14:02:34;1;1;
81989;PMS5003;71485;51.638;-0.182;2024-01-15T14:04:59;1;1;
81989;PMS5003;71485;51.638;-0.182;2024-01-15T14:07:25;1;1;
81989;PMS5003;71485;51.638;-0.182;2024-01-15T14:09:52;2;1;
81989;PMS5003;71485;51.638;-0.182;2024-01-15T14:12:16;1;1;
81989;PMS5003;71485;51.638;-0.182;2024-01-15T14:14:41;2;2;
81989;PMS5003;71485;51.638;-0.182;2024-01-15T14:17:07;0;0;
81989;PMS5003;71485;51.638;-0.182;2024-01-15T14:19:34;1;1;
81989;PMS5003;71485;51.638;-0.182;2024-01-15T14:21:58;1;1;
81989;PMS5003;71485;51.638;-0.182;2024-01-15T14:24:25;0;0;
81989;PMS5003;71485;51.638;-0.182;2024-01-15T14:26:52;0;0;
81989;PMS5003;71485;51.638;-0.182;2024-01-15T14:29:19;1;1;
81989;PMS5003;71485;51.638;-0.182;2024-01-15T14:31:41;2;1;
81989;PMS5003;71485;51.638;-0.182;2024-01-15T14:34:06;0;0;
81989;PMS5003;71485;51.638;-0.182;2024-01-15T14:36:32;1;1;
81989;PMS5003;71485;51.638;-0.182;2024-01-15T14:38:59;0;0;
81989;PMS5003;71485;51.638;-0.182;2024-01-15T14:41:25;1;1;
81989;PMS5003;71485;51.638;-0.182;2024-01-15T14:43:50;1;1;
81989;PMS5003;71485;51.638;-0.182;2024-01-15T14:46:16;1;1;
81989;PMS5003;71485;51.638;-0.182;2024-01-15T14:48:42;1;1;
81989;PMS5003;71485;51.638;-0.182;2024-01-15T14:51:06;1;1;
81989;PMS5003;71485;51.638;-0.182;2024-01-15T14:53:32;0;0;
81989;PMS5003;71485;51.638;-0.182;2024-01-15T14:55:57;1;1;
81989;PMS5003;71485;51.638;-0.182;2024-01-15T14:58:23;0;0;
81989;PMS5003;71485;51.638;-0.182;2024-01-15T15:00:53;0;0;
81989;PMS5003;71485;51.638;-0.182;2024-01-15T15:03:14;2;2;
81989;PMS5003;71485;51.638;-0.182;2024-01-15T15:05:40;1;1;
81989;PMS5003;71485;51.638;-0.182;2024-01-15T15:08:05;0;0;
81989;PMS5003;71485;51.638;-0.182;2024-01-15T15:10:31;1;1;
81989;PMS5003;71485;51.638;-0.182;2024-01-15T15:12:57;1;1;
81989;PMS5003;71485;51.638;-0.182;2024-01-15T15:15:22;1;1;
81989;PMS5003;71485;51.638;-0.182;2024-01-15T15:17:48;1;0;
81989;PMS5003;71485;51.638;-0.182;2024-01-15T15:20:14;1;1;
81989;PMS5003;71485;51.638;-0.182;2024-01-15T15:22:39;1;1;
81989;PMS5003;71485;51.638;-0.182;2024-01-15T15:25:08;0;0;
81989;PMS5003;71485;51.638;-0.182;2024-01-15T15:27:35;1;1;
81989;PMS5003;71485;51.638;-0.182;2024-01-15T15:29:56;1;1;
81989;PMS5003;71485;51.638;-0.182;2024-01-15T15:32:22;0;0;
81989;PMS5003;71485;51.638;-0.182;2024-01-15T15:34:49;1;1;
81989;PMS5003;71485;51.638;-0.182;2024-01-15T15:37:14;1;1;
81989;PMS5003;71485;51.638;-0.182;2024-01-15T15:39:39;0;0;
81989;PMS5003;71485;51.638;-0.182;2024-01-15T15:42:05;1;0;
81989;PMS5003;71485;51.638;-0.182;2024-01-15T15:44:31;2;1;
81989;PMS5003;71485;51.638;-0.182;2024-01-15T15:46:57;1;1;
81989;PMS5003;71485;51.638;-0.182;2024-01-15T15:49:24;1;1;
81989;PMS5003;71485;51.638;-0.182;2024-01-15T15:51:47;1;0;
81989;PMS5003;71485;51.638;-0.182;2024-01-15T15:54:13;0;0;
81989;PMS5003;71485;51.638;-0.182;2024-01-15T15:56:38;0;0;
81989;PMS5003;71485;51.638;-0.182;2024-01-15T15:59:05;0;0;
81989;PMS5003;71485;51.638;-0.182;2024-01-15T16:01:29;1;1;
81989;PMS5003;71485;51.638;-0.182;2024-01-15T16:03:56;0;0;
81989;PMS5003;71485;51.638;-0.182;2024-01-15T16:06:22;0;0;
81989;PMS5003;71485;51.638;-0.182;2024-01-15T16:08:46;0;0;
81989;PMS5003;71485;51.638;-0.182;2024-01-15T16:11:12;2;2;
81989;PMS5003;71485;51.638;-0.182;2024-01-15T16:13:38;0;0;
81989;PMS5003;71485;51.638;-0.182;2024-01-15T16:16:03;1;1;
81989;PMS5003;71485;51.638;-0.182;2024-01-15T16:18:29;0;0;
81989;PMS5003;71485;51.638;-0.182;2024-01-15T16:20:56;1;1;
81989;PMS5003;71485;51.638;-0.182;2024-01-15T16:23:21;1;1;
81989;PMS5003;71485;51.638;-0.182;2024-01-15T16:25:50;1;1;
81989;PMS5003;71485;51.638;-0.182;2024-01-15T16:28:12;0;0;
81989;PMS5003;71485;51.638;-0.182;2024-01-15T16:30:37;1;1;
81989;PMS5003;71485;51.638;-0.182;2024-01-15T16:33:03;0;0;